createdAt,value
2017-02-10T00:00:14.702Z,1017.18
2017-02-10T00:00:56.403Z,1017.21
2017-02-10T00:01:38.119Z,1017.21
2017-02-10T00:03:38.003Z,1017.2
2017-02-10T00:04:19.693Z,1017.22
2017-02-10T00:06:40.158Z,1017.2
2017-02-10T00:07:21.888Z,1017.22
2017-02-10T00:08:03.318Z,1017.25
2017-02-10T00:08:45.070Z,1017.22
2017-02-10T00:11:15.908Z,1017.2
2017-02-10T00:13:15.843Z,1017.19
2017-02-10T00:13:57.385Z,1017.21
2017-02-10T00:14:39.204Z,1017.17
2017-02-10T00:15:20.736Z,1017.2
2017-02-10T00:16:02.163Z,1017.24
2017-02-10T00:17:56.624Z,1017.16
2017-02-10T00:18:38.329Z,1017.12
2017-02-10T00:19:19.998Z,1017.11
2017-02-10T00:20:01.559Z,1017.12
2017-02-10T00:20:42.936Z,1017.15
2017-02-10T00:21:24.374Z,1017.13
2017-02-10T00:22:06.007Z,1017.13
2017-02-10T00:24:21.486Z,1017.1
2017-02-10T00:25:02.951Z,1017.1
2017-02-10T00:25:44.427Z,1017.09
2017-02-10T00:26:26.057Z,1017.08
2017-02-10T00:27:07.869Z,1017.08
2017-02-10T00:29:23.131Z,1017.07
2017-02-10T00:30:04.837Z,1017.02
2017-02-10T00:30:46.579Z,1017.04
2017-02-10T00:31:28.163Z,1017.05
2017-02-10T00:33:43.394Z,1016.99
2017-02-10T00:34:24.857Z,1017.01
2017-02-10T00:35:06.406Z,1017
2017-02-10T00:35:47.955Z,1017.02
2017-02-10T00:36:29.527Z,1016.98
2017-02-10T00:37:11.018Z,1016.99
2017-02-10T00:37:52.794Z,1016.98
2017-02-10T00:38:34.450Z,1016.93
2017-02-10T00:42:18.441Z,1016.86
2017-02-10T00:42:59.969Z,1016.85
2017-02-10T00:43:41.759Z,1016.87
2017-02-10T00:44:23.497Z,1016.87
2017-02-10T00:45:05.177Z,1016.84
2017-02-10T00:45:46.813Z,1016.85
2017-02-10T00:46:28.084Z,1016.83
2017-02-10T00:48:58.973Z,1016.81
2017-02-10T00:49:40.648Z,1016.82
2017-02-10T00:50:22.321Z,1016.75
2017-02-10T00:51:03.875Z,1016.77
2017-02-10T00:51:45.519Z,1016.78
2017-02-10T00:54:06.140Z,1016.74
2017-02-10T00:56:05.929Z,1016.74
2017-02-10T00:56:47.612Z,1016.75
2017-02-10T00:59:08.142Z,1016.73
2017-02-10T00:59:49.905Z,1016.71
2017-02-10T01:00:31.458Z,1016.73
2017-02-10T01:01:12.979Z,1016.75
2017-02-10T01:01:54.316Z,1016.73
2017-02-10T01:02:35.989Z,1016.69
2017-02-10T01:03:17.771Z,1016.71
2017-02-10T01:03:59.387Z,1016.69
2017-02-10T01:04:41.117Z,1016.72
2017-02-10T01:06:56.531Z,1016.73
2017-02-10T01:07:38.152Z,1016.69
2017-02-10T01:08:19.603Z,1016.69
2017-02-10T01:09:01.109Z,1016.72
2017-02-10T01:09:42.856Z,1016.72
2017-02-10T01:12:03.458Z,1016.73
2017-02-10T01:12:45.018Z,1016.73
2017-02-10T01:13:26.774Z,1016.74
2017-02-10T01:14:08.389Z,1016.71
2017-02-10T01:14:50.202Z,1016.69
2017-02-10T01:15:31.828Z,1016.74
2017-02-10T01:18:02.794Z,1016.77
2017-02-10T01:18:44.455Z,1016.78
2017-02-10T01:19:26.139Z,1016.75
2017-02-10T01:21:20.937Z,1016.73
2017-02-10T01:22:02.696Z,1016.76
2017-02-10T01:22:44.392Z,1016.73
2017-02-10T01:23:26.103Z,1016.76
2017-02-10T01:25:20.914Z,1016.7
2017-02-10T01:26:02.588Z,1016.71
2017-02-10T01:26:44.337Z,1016.67
2017-02-10T01:27:25.980Z,1016.74
2017-02-10T01:28:07.699Z,1016.7
2017-02-10T01:30:23.068Z,1016.71
2017-02-10T01:32:38.294Z,1016.65
2017-02-10T01:33:19.969Z,1016.65
2017-02-10T01:34:01.802Z,1016.64
2017-02-10T01:34:43.562Z,1016.65
2017-02-10T01:36:58.822Z,1016.64
2017-02-10T01:37:40.158Z,1016.64
2017-02-10T01:39:34.802Z,1016.63
2017-02-10T01:41:29.490Z,1016.64
2017-02-10T01:42:11.256Z,1016.63
2017-02-10T01:44:11.332Z,1016.58
2017-02-10T01:44:53.052Z,1016.61
2017-02-10T01:45:34.646Z,1016.57
2017-02-10T01:46:16.119Z,1016.59
2017-02-10T01:46:57.896Z,1016.6
2017-02-10T01:51:18.078Z,1016.52
2017-02-10T01:51:59.743Z,1016.47
2017-02-10T01:52:41.325Z,1016.49
2017-02-10T01:53:22.911Z,1016.49
2017-02-10T01:54:04.623Z,1016.47
2017-02-10T01:54:46.354Z,1016.44
2017-02-10T01:57:01.665Z,1016.45
2017-02-10T01:57:43.414Z,1016.48
2017-02-10T01:58:25.007Z,1016.45
2017-02-10T02:00:45.708Z,1016.45
2017-02-10T02:03:16.459Z,1016.41
2017-02-10T02:03:57.106Z,1016.43
2017-02-10T02:04:37.639Z,1016.37
2017-02-10T02:05:18.167Z,1016.39
2017-02-10T02:05:58.698Z,1016.36
2017-02-10T02:06:39.231Z,1016.34
2017-02-10T02:07:19.755Z,1016.35
2017-02-10T02:08:00.286Z,1016.33
2017-02-10T02:08:40.814Z,1016.28
2017-02-10T02:09:21.346Z,1016.3
2017-02-10T02:10:01.872Z,1016.25
2017-02-10T02:10:42.403Z,1016.25
2017-02-10T02:11:22.938Z,1016.26
2017-02-10T02:12:03.466Z,1016.26
2017-02-10T02:12:44.000Z,1016.28
2017-02-10T02:13:24.527Z,1016.26
2017-02-10T02:14:05.059Z,1016.3
2017-02-10T02:14:45.590Z,1016.24
2017-02-10T02:15:26.114Z,1016.25
2017-02-10T02:16:06.643Z,1016.29
2017-02-10T02:16:47.176Z,1016.27
2017-02-10T02:17:27.707Z,1016.25
2017-02-10T02:18:08.244Z,1016.25
2017-02-10T02:18:48.777Z,1016.21
2017-02-10T02:19:29.304Z,1016.24
2017-02-10T02:20:09.835Z,1016.24
2017-02-10T02:20:50.369Z,1016.21
2017-02-10T02:21:30.901Z,1016.24
2017-02-10T02:22:11.437Z,1016.19
2017-02-10T02:22:51.967Z,1016.21
2017-02-10T02:23:32.496Z,1016.21
2017-02-10T02:24:13.036Z,1016.24
2017-02-10T02:24:53.585Z,1016.21
2017-02-10T02:25:34.115Z,1016.21
2017-02-10T02:26:14.653Z,1016.2
2017-02-10T02:26:55.178Z,1016.18
2017-02-10T02:27:35.713Z,1016.17
2017-02-10T02:28:16.242Z,1016.18
2017-02-10T02:28:56.773Z,1016.16
2017-02-10T02:29:37.301Z,1016.19
2017-02-10T02:30:17.829Z,1016.15
2017-02-10T02:30:58.361Z,1016.17
2017-02-10T02:31:38.886Z,1016.16
2017-02-10T02:32:19.422Z,1016.19
2017-02-10T02:32:59.954Z,1016.17
2017-02-10T02:33:40.483Z,1016.15
2017-02-10T02:34:21.013Z,1016.13
2017-02-10T02:35:01.544Z,1016.15
2017-02-10T02:35:42.116Z,1016.12
2017-02-10T02:36:22.646Z,1016.11
2017-02-10T02:37:03.180Z,1016.14
2017-02-10T02:37:43.709Z,1016.08
2017-02-10T02:38:24.241Z,1016.08
2017-02-10T02:39:04.769Z,1016.1
2017-02-10T02:39:45.303Z,1016.08
2017-02-10T02:40:25.822Z,1016.08
2017-02-10T02:41:06.353Z,1016.04
2017-02-10T02:41:46.888Z,1016.04
2017-02-10T02:42:27.415Z,1016.06
2017-02-10T02:43:07.943Z,1016.04
2017-02-10T02:43:48.479Z,1016.01
2017-02-10T02:44:29.011Z,1016.03
2017-02-10T02:45:09.536Z,1016.02
2017-02-10T02:45:50.072Z,1016.03
2017-02-10T02:46:30.596Z,1016.03
2017-02-10T02:47:11.128Z,1016.02
2017-02-10T02:47:51.662Z,1016.02
2017-02-10T02:48:32.189Z,1015.98
2017-02-10T02:49:12.714Z,1015.97
2017-02-10T02:49:53.252Z,1015.96
2017-02-10T02:50:33.781Z,1015.97
2017-02-10T02:51:14.313Z,1016
2017-02-10T02:51:54.841Z,1016
2017-02-10T02:52:35.377Z,1015.98
2017-02-10T02:53:15.899Z,1016.01
2017-02-10T02:53:56.434Z,1016.01
2017-02-10T02:54:36.951Z,1015.97
2017-02-10T02:55:17.488Z,1015.98
2017-02-10T02:55:58.029Z,1015.97
2017-02-10T02:56:38.557Z,1015.96
2017-02-10T02:57:19.089Z,1015.96
2017-02-10T02:57:59.623Z,1015.93
2017-02-10T02:58:40.147Z,1015.95
2017-02-10T02:59:20.676Z,1016
2017-02-10T03:00:01.205Z,1016.02
2017-02-10T03:00:41.737Z,1016.01
2017-02-10T03:01:22.266Z,1015.97
2017-02-10T03:02:02.784Z,1015.98
2017-02-10T03:02:43.315Z,1016
2017-02-10T03:03:23.846Z,1015.96
2017-02-10T03:04:04.378Z,1015.98
2017-02-10T03:04:44.913Z,1015.97
2017-02-10T03:05:25.474Z,1015.99
2017-02-10T03:06:05.960Z,1015.93
2017-02-10T03:06:46.496Z,1015.99
2017-02-10T03:07:27.027Z,1015.97
2017-02-10T03:08:07.551Z,1015.96
2017-02-10T03:08:48.081Z,1016.01
2017-02-10T03:09:28.614Z,1015.98
2017-02-10T03:10:09.139Z,1016.02
2017-02-10T03:10:49.677Z,1016
2017-02-10T03:11:30.202Z,1015.97
2017-02-10T03:12:10.733Z,1015.97
2017-02-10T03:12:51.261Z,1015.99
2017-02-10T03:13:31.794Z,1015.98
2017-02-10T03:14:12.324Z,1015.97
2017-02-10T03:14:52.850Z,1015.98
2017-02-10T03:15:33.378Z,1015.97
2017-02-10T03:16:13.912Z,1016.01
2017-02-10T03:16:54.445Z,1015.98
2017-02-10T03:17:34.978Z,1015.99
2017-02-10T03:18:15.507Z,1015.99
2017-02-10T03:18:56.035Z,1015.99
2017-02-10T03:19:36.566Z,1016
2017-02-10T03:20:17.092Z,1016.02
2017-02-10T03:20:57.627Z,1016.02
2017-02-10T03:21:38.157Z,1016.03
2017-02-10T03:22:18.690Z,1016.01
2017-02-10T03:22:59.219Z,1016.05
2017-02-10T03:23:39.748Z,1016.03
2017-02-10T03:24:20.279Z,1016.02
2017-02-10T03:25:00.808Z,1016.05
2017-02-10T03:25:41.333Z,1016.05
2017-02-10T03:26:21.871Z,1016.04
2017-02-10T03:27:02.400Z,1016.05
2017-02-10T03:27:42.919Z,1016.06
2017-02-10T03:28:23.453Z,1016.03
2017-02-10T03:29:03.974Z,1016.05
2017-02-10T03:29:44.507Z,1016.08
2017-02-10T03:30:25.038Z,1016.06
2017-02-10T03:31:05.566Z,1016.08
2017-02-10T03:31:46.093Z,1016.09
2017-02-10T03:32:26.621Z,1016.07
2017-02-10T03:33:07.156Z,1016.07
2017-02-10T03:33:47.688Z,1016.07
2017-02-10T03:34:28.217Z,1016.07
2017-02-10T03:35:08.748Z,1016.05
2017-02-10T03:35:49.277Z,1016.05
2017-02-10T03:36:29.809Z,1016.11
2017-02-10T03:37:10.339Z,1016.12
2017-02-10T03:37:50.866Z,1016.13
2017-02-10T03:38:31.399Z,1016.14
2017-02-10T03:39:11.924Z,1016.17
2017-02-10T03:39:52.463Z,1016.14
2017-02-10T03:40:32.995Z,1016.17
2017-02-10T03:41:13.520Z,1016.16
2017-02-10T03:41:54.058Z,1016.18
2017-02-10T03:42:34.585Z,1016.16
2017-02-10T03:43:15.114Z,1016.13
2017-02-10T03:43:55.633Z,1016.13
2017-02-10T03:44:36.168Z,1016.16
2017-02-10T03:45:16.699Z,1016.2
2017-02-10T03:45:57.228Z,1016.14
2017-02-10T03:46:37.764Z,1016.17
2017-02-10T03:47:18.319Z,1016.14
2017-02-10T03:47:58.851Z,1016.14
2017-02-10T03:48:41.916Z,1016.14
2017-02-10T03:49:22.491Z,1016.11
2017-02-10T03:50:03.019Z,1016.1
2017-02-10T03:50:43.548Z,1016.1
2017-02-10T03:51:24.072Z,1016.1
2017-02-10T03:52:04.604Z,1016.07
2017-02-10T03:52:45.136Z,1016.08
2017-02-10T03:53:25.657Z,1016.1
2017-02-10T03:54:06.186Z,1016.1
2017-02-10T03:54:46.716Z,1016.14
2017-02-10T03:55:27.239Z,1016.12
2017-02-10T03:56:07.768Z,1016.1
2017-02-10T03:56:48.301Z,1016.12
2017-02-10T03:57:28.830Z,1016.11
2017-02-10T03:58:09.360Z,1016.11
2017-02-10T03:58:49.890Z,1016.1
2017-02-10T03:59:30.428Z,1016.09
2017-02-10T04:00:10.955Z,1016.06
2017-02-10T04:00:51.485Z,1016.08
2017-02-10T04:01:32.010Z,1016.08
2017-02-10T04:02:12.543Z,1016.07
2017-02-10T04:02:53.072Z,1016.07
2017-02-10T04:03:33.720Z,1016.06
2017-02-10T04:04:14.303Z,1016.03
2017-02-10T04:04:54.835Z,1016.09
2017-02-10T04:05:35.360Z,1016.09
2017-02-10T04:06:15.889Z,1016.04
2017-02-10T04:06:56.420Z,1016.1
2017-02-10T04:07:36.950Z,1016.04
2017-02-10T04:08:17.485Z,1016.05
2017-02-10T04:08:58.025Z,1016.07
2017-02-10T04:09:38.543Z,1016.05
2017-02-10T04:10:19.076Z,1016.05
2017-02-10T04:10:59.604Z,1016.07
2017-02-10T04:11:40.141Z,1016.09
2017-02-10T04:12:20.670Z,1016.09
2017-02-10T04:13:01.203Z,1016.13
2017-02-10T04:13:41.737Z,1016.06
2017-02-10T04:14:22.272Z,1016.05
2017-02-10T04:15:02.804Z,1016.11
2017-02-10T04:15:43.326Z,1016.1
2017-02-10T04:16:23.864Z,1016.1
2017-02-10T04:17:04.397Z,1016.04
2017-02-10T04:17:44.929Z,1016.06
2017-02-10T04:18:25.453Z,1016.11
2017-02-10T04:19:05.979Z,1016.08
2017-02-10T04:19:46.507Z,1016.11
2017-02-10T04:20:27.041Z,1016.07
2017-02-10T04:21:07.561Z,1016.07
2017-02-10T04:21:48.096Z,1016.06
2017-02-10T04:22:28.619Z,1016.09
2017-02-10T04:23:09.154Z,1016.08
2017-02-10T04:23:49.685Z,1016.05
2017-02-10T04:24:30.218Z,1016.05
2017-02-10T04:25:10.741Z,1016.09
2017-02-10T04:25:51.265Z,1016.05
2017-02-10T04:26:31.801Z,1016.02
2017-02-10T04:27:12.329Z,1016.01
2017-02-10T04:27:52.861Z,1016.02
2017-02-10T04:28:33.392Z,1016.01
2017-02-10T04:29:13.926Z,1015.99
2017-02-10T04:29:54.455Z,1015.96
2017-02-10T04:30:34.987Z,1015.94
2017-02-10T04:31:15.515Z,1015.92
2017-02-10T04:31:56.069Z,1015.95
2017-02-10T04:32:36.596Z,1015.94
2017-02-10T04:33:17.126Z,1015.93
2017-02-10T04:33:57.662Z,1015.94
2017-02-10T04:34:38.192Z,1015.92
2017-02-10T04:35:18.718Z,1015.93
2017-02-10T04:35:59.253Z,1015.92
2017-02-10T04:36:39.777Z,1015.91
2017-02-10T04:37:20.307Z,1015.9
2017-02-10T04:38:00.844Z,1015.88
2017-02-10T04:38:41.374Z,1015.86
2017-02-10T04:39:21.906Z,1015.84
2017-02-10T04:40:02.432Z,1015.87
2017-02-10T04:40:42.960Z,1015.86
2017-02-10T04:41:23.493Z,1015.88
2017-02-10T04:42:04.013Z,1015.85
2017-02-10T04:42:44.543Z,1015.88
2017-02-10T04:43:25.076Z,1015.84
2017-02-10T04:44:05.605Z,1015.84
2017-02-10T04:44:46.123Z,1015.85
2017-02-10T04:45:26.660Z,1015.84
2017-02-10T04:46:07.179Z,1015.86
2017-02-10T04:46:48.215Z,1015.85
2017-02-10T04:47:29.745Z,1015.85
2017-02-10T04:48:10.278Z,1015.87
2017-02-10T04:48:50.804Z,1015.84
2017-02-10T04:49:31.377Z,1015.84
2017-02-10T04:50:11.920Z,1015.8
2017-02-10T04:50:52.438Z,1015.78
2017-02-10T04:51:32.962Z,1015.77
2017-02-10T04:52:13.500Z,1015.77
2017-02-10T04:52:54.032Z,1015.79
2017-02-10T04:53:34.561Z,1015.83
2017-02-10T04:54:15.096Z,1015.83
2017-02-10T04:54:55.639Z,1015.82
2017-02-10T04:55:36.161Z,1015.8
2017-02-10T04:56:16.680Z,1015.81
2017-02-10T04:56:57.214Z,1015.8
2017-02-10T04:57:37.742Z,1015.79
2017-02-10T04:58:18.272Z,1015.76
2017-02-10T04:58:58.805Z,1015.8
2017-02-10T04:59:39.578Z,1015.76
2017-02-10T05:00:20.102Z,1015.8
2017-02-10T05:01:00.633Z,1015.76
2017-02-10T05:01:41.162Z,1015.73
2017-02-10T05:02:21.696Z,1015.76
2017-02-10T05:03:02.224Z,1015.75
2017-02-10T05:03:42.754Z,1015.77
2017-02-10T05:04:23.288Z,1015.73
2017-02-10T05:05:03.810Z,1015.75
2017-02-10T05:05:44.344Z,1015.73
2017-02-10T05:06:24.873Z,1015.74
2017-02-10T05:07:05.411Z,1015.75
2017-02-10T05:07:45.933Z,1015.75
2017-02-10T05:08:26.483Z,1015.76
2017-02-10T05:09:07.044Z,1015.7
2017-02-10T05:09:47.577Z,1015.7
2017-02-10T05:10:28.142Z,1015.7
2017-02-10T05:11:08.673Z,1015.68
2017-02-10T05:11:49.205Z,1015.68
2017-02-10T05:12:29.783Z,1015.68
2017-02-10T05:13:10.319Z,1015.65
2017-02-10T05:13:50.870Z,1015.64
2017-02-10T05:14:31.409Z,1015.63
2017-02-10T05:15:11.946Z,1015.65
2017-02-10T05:15:52.468Z,1015.63
2017-02-10T05:16:32.999Z,1015.63
2017-02-10T05:17:13.532Z,1015.61
2017-02-10T05:17:54.063Z,1015.6
2017-02-10T05:18:34.579Z,1015.58
2017-02-10T05:19:15.110Z,1015.59
2017-02-10T05:19:55.647Z,1015.57
2017-02-10T05:20:36.178Z,1015.55
2017-02-10T05:21:16.709Z,1015.54
2017-02-10T05:21:57.254Z,1015.55
2017-02-10T05:22:37.791Z,1015.55
2017-02-10T05:23:18.330Z,1015.55
2017-02-10T05:23:58.868Z,1015.54
2017-02-10T05:24:39.397Z,1015.54
2017-02-10T05:25:20.234Z,1015.57
2017-02-10T05:26:00.766Z,1015.53
2017-02-10T05:26:41.285Z,1015.53
2017-02-10T05:27:21.829Z,1015.55
2017-02-10T05:28:02.357Z,1015.56
2017-02-10T05:28:42.890Z,1015.54
2017-02-10T05:29:23.420Z,1015.51
2017-02-10T05:30:03.952Z,1015.52
2017-02-10T05:30:44.479Z,1015.49
2017-02-10T05:31:25.015Z,1015.53
2017-02-10T05:32:05.544Z,1015.5
2017-02-10T05:32:46.075Z,1015.52
2017-02-10T05:33:26.591Z,1015.56
2017-02-10T05:34:07.122Z,1015.59
2017-02-10T05:34:47.664Z,1015.54
2017-02-10T05:35:28.195Z,1015.5
2017-02-10T05:36:08.737Z,1015.5
2017-02-10T05:36:49.255Z,1015.49
2017-02-10T05:37:29.787Z,1015.52
2017-02-10T05:38:10.311Z,1015.51
2017-02-10T05:38:50.847Z,1015.52
2017-02-10T05:41:20.315Z,1015.49
2017-02-10T05:42:00.850Z,1015.48
2017-02-10T05:42:41.381Z,1015.52
2017-02-10T05:43:21.915Z,1015.53
2017-02-10T05:44:02.435Z,1015.54
2017-02-10T05:44:42.960Z,1015.5
2017-02-10T05:45:23.484Z,1015.52
2017-02-10T05:46:04.016Z,1015.53
2017-02-10T05:46:44.575Z,1015.52
2017-02-10T05:47:25.098Z,1015.52
2017-02-10T05:48:05.624Z,1015.54
2017-02-10T05:48:46.206Z,1015.55
2017-02-10T05:49:26.740Z,1015.56
2017-02-10T05:50:07.266Z,1015.57
2017-02-10T05:50:47.797Z,1015.52
2017-02-10T05:51:28.325Z,1015.54
2017-02-10T05:52:08.859Z,1015.55
2017-02-10T05:52:49.390Z,1015.55
2017-02-10T05:53:29.913Z,1015.59
2017-02-10T05:54:10.439Z,1015.55
2017-02-10T05:54:50.967Z,1015.6
2017-02-10T05:55:31.491Z,1015.6
2017-02-10T05:56:12.015Z,1015.59
2017-02-10T05:56:52.548Z,1015.63
2017-02-10T05:57:33.076Z,1015.59
2017-02-10T05:58:13.609Z,1015.59
2017-02-10T05:58:54.124Z,1015.58
2017-02-10T05:59:34.643Z,1015.56
2017-02-10T06:00:15.178Z,1015.57
2017-02-10T06:00:55.715Z,1015.56
2017-02-10T06:01:36.249Z,1015.56
2017-02-10T06:02:16.793Z,1015.54
2017-02-10T06:02:57.273Z,1015.57
2017-02-10T06:03:37.808Z,1015.6
2017-02-10T06:04:18.351Z,1015.6
2017-02-10T06:04:58.869Z,1015.6
2017-02-10T06:05:39.406Z,1015.61
2017-02-10T06:06:19.957Z,1015.6
2017-02-10T06:07:00.471Z,1015.59
2017-02-10T06:07:41.001Z,1015.59
2017-02-10T06:08:21.527Z,1015.6
2017-02-10T06:09:02.058Z,1015.61
2017-02-10T06:09:42.574Z,1015.63
2017-02-10T06:10:23.094Z,1015.59
2017-02-10T06:11:03.621Z,1015.6
2017-02-10T06:11:44.155Z,1015.64
2017-02-10T06:12:24.685Z,1015.64
2017-02-10T06:13:05.219Z,1015.62
2017-02-10T06:13:45.736Z,1015.66
2017-02-10T06:14:26.272Z,1015.67
2017-02-10T06:15:06.800Z,1015.69
2017-02-10T06:15:47.331Z,1015.66
2017-02-10T06:16:27.865Z,1015.63
2017-02-10T06:17:08.399Z,1015.64
2017-02-10T06:17:48.926Z,1015.66
2017-02-10T06:18:29.452Z,1015.64
2017-02-10T06:19:09.977Z,1015.64
2017-02-10T06:19:50.505Z,1015.63
2017-02-10T06:20:31.025Z,1015.63
2017-02-10T06:21:11.544Z,1015.61
2017-02-10T06:21:52.074Z,1015.62
2017-02-10T06:22:32.605Z,1015.65
2017-02-10T06:23:13.123Z,1015.64
2017-02-10T06:23:53.643Z,1015.63
2017-02-10T06:24:34.175Z,1015.63
2017-02-10T06:25:14.710Z,1015.65
2017-02-10T06:25:55.234Z,1015.64
2017-02-10T06:26:35.762Z,1015.65
2017-02-10T06:27:16.281Z,1015.61
2017-02-10T06:27:56.808Z,1015.61
2017-02-10T06:28:37.333Z,1015.61
2017-02-10T06:29:17.857Z,1015.6
2017-02-10T06:29:58.384Z,1015.62
2017-02-10T06:30:38.915Z,1015.6
2017-02-10T06:31:19.456Z,1015.61
2017-02-10T06:31:59.974Z,1015.63
2017-02-10T06:32:40.501Z,1015.64
2017-02-10T06:33:21.045Z,1015.65
2017-02-10T06:34:01.573Z,1015.65
2017-02-10T06:34:42.098Z,1015.65
2017-02-10T06:35:22.627Z,1015.68
2017-02-10T06:36:03.157Z,1015.68
2017-02-10T06:36:43.688Z,1015.7
2017-02-10T06:37:24.232Z,1015.66
2017-02-10T06:38:04.743Z,1015.67
2017-02-10T06:38:45.274Z,1015.67
2017-02-10T06:39:25.803Z,1015.65
2017-02-10T06:40:06.338Z,1015.64
2017-02-10T06:40:46.869Z,1015.66
2017-02-10T06:41:27.393Z,1015.62
2017-02-10T06:42:07.920Z,1015.68
2017-02-10T06:42:48.454Z,1015.69
2017-02-10T06:43:28.987Z,1015.7
2017-02-10T06:44:09.519Z,1015.68
2017-02-10T06:44:50.043Z,1015.68
2017-02-10T06:45:30.583Z,1015.64
2017-02-10T06:46:11.113Z,1015.66
2017-02-10T06:46:51.646Z,1015.67
2017-02-10T06:47:32.185Z,1015.65
2017-02-10T06:48:12.779Z,1015.63
2017-02-10T06:48:53.312Z,1015.64
2017-02-10T06:49:33.860Z,1015.67
2017-02-10T06:50:14.428Z,1015.68
2017-02-10T06:50:54.963Z,1015.64
2017-02-10T06:51:35.493Z,1015.65
2017-02-10T06:52:16.020Z,1015.67
2017-02-10T06:52:56.554Z,1015.66
2017-02-10T06:53:37.105Z,1015.65
2017-02-10T06:54:17.652Z,1015.66
2017-02-10T06:54:58.183Z,1015.67
2017-02-10T06:55:38.715Z,1015.66
2017-02-10T06:56:19.248Z,1015.71
2017-02-10T06:56:59.768Z,1015.64
2017-02-10T06:57:40.294Z,1015.66
2017-02-10T06:58:20.841Z,1015.67
2017-02-10T06:59:01.369Z,1015.67
2017-02-10T06:59:41.891Z,1015.7
2017-02-10T07:00:22.408Z,1015.65
2017-02-10T07:01:02.947Z,1015.64
2017-02-10T07:01:43.469Z,1015.6
2017-02-10T07:02:23.999Z,1015.64
2017-02-10T07:03:04.535Z,1015.62
2017-02-10T07:03:45.061Z,1015.66
2017-02-10T07:04:25.590Z,1015.63
2017-02-10T07:05:06.111Z,1015.68
2017-02-10T07:05:46.643Z,1015.67
2017-02-10T07:06:27.173Z,1015.66
2017-02-10T07:07:07.710Z,1015.7
2017-02-10T07:07:48.331Z,1015.68
2017-02-10T07:08:28.862Z,1015.68
2017-02-10T07:09:09.391Z,1015.69
2017-02-10T07:09:49.917Z,1015.71
2017-02-10T07:10:30.445Z,1015.7
2017-02-10T07:11:10.985Z,1015.75
2017-02-10T07:11:51.526Z,1015.75
2017-02-10T07:12:32.052Z,1015.74
2017-02-10T07:13:12.576Z,1015.77
2017-02-10T07:13:53.107Z,1015.77
2017-02-10T07:14:33.644Z,1015.72
2017-02-10T07:15:14.185Z,1015.75
2017-02-10T07:15:54.717Z,1015.71
2017-02-10T07:16:35.247Z,1015.72
2017-02-10T07:17:15.771Z,1015.74
2017-02-10T07:17:56.305Z,1015.72
2017-02-10T07:18:36.838Z,1015.66
2017-02-10T07:19:17.368Z,1015.65
2017-02-10T07:19:57.889Z,1015.66
2017-02-10T07:20:38.416Z,1015.65
2017-02-10T07:21:18.943Z,1015.65
2017-02-10T07:21:59.489Z,1015.63
2017-02-10T07:22:40.013Z,1015.65
2017-02-10T07:23:20.552Z,1015.67
2017-02-10T07:24:01.063Z,1015.64
2017-02-10T07:24:41.588Z,1015.66
2017-02-10T07:25:22.119Z,1015.66
2017-02-10T07:26:02.645Z,1015.64
2017-02-10T07:26:43.176Z,1015.68
2017-02-10T07:27:23.702Z,1015.69
2017-02-10T07:28:04.236Z,1015.69
2017-02-10T07:28:44.750Z,1015.68
2017-02-10T07:29:25.270Z,1015.66
2017-02-10T07:30:05.791Z,1015.73
2017-02-10T07:30:46.322Z,1015.71
2017-02-10T07:31:26.844Z,1015.7
2017-02-10T07:32:07.403Z,1015.71
2017-02-10T07:32:47.920Z,1015.7
2017-02-10T07:33:28.454Z,1015.67
2017-02-10T07:34:08.985Z,1015.66
2017-02-10T07:34:49.517Z,1015.68
2017-02-10T07:35:30.039Z,1015.68
2017-02-10T07:36:10.567Z,1015.64
2017-02-10T07:36:51.096Z,1015.64
2017-02-10T07:37:31.668Z,1015.65
2017-02-10T07:38:12.191Z,1015.64
2017-02-10T07:38:52.723Z,1015.67
2017-02-10T07:39:33.244Z,1015.66
2017-02-10T07:40:13.786Z,1015.68
2017-02-10T07:40:54.312Z,1015.67
2017-02-10T07:41:34.849Z,1015.68
2017-02-10T07:42:15.381Z,1015.65
2017-02-10T07:42:55.926Z,1015.68
2017-02-10T07:43:36.456Z,1015.66
2017-02-10T07:44:16.977Z,1015.65
2017-02-10T07:46:37.394Z,1015.71
2017-02-10T07:47:17.911Z,1015.7
2017-02-10T07:47:58.444Z,1015.68
2017-02-10T07:48:38.972Z,1015.72
2017-02-10T07:49:19.485Z,1015.74
2017-02-10T07:50:00.012Z,1015.7
2017-02-10T07:50:40.538Z,1015.74
2017-02-10T07:51:21.065Z,1015.75
2017-02-10T07:52:01.600Z,1015.7
2017-02-10T07:52:42.114Z,1015.75
2017-02-10T07:53:22.641Z,1015.72
2017-02-10T07:54:03.182Z,1015.72
2017-02-10T07:54:43.716Z,1015.72
2017-02-10T07:55:24.238Z,1015.69
2017-02-10T07:56:04.851Z,1015.7
2017-02-10T07:56:45.379Z,1015.73
2017-02-10T07:57:25.903Z,1015.72
2017-02-10T07:58:06.456Z,1015.75
2017-02-10T07:58:47.014Z,1015.72
2017-02-10T07:59:27.505Z,1015.7
2017-02-10T08:00:08.047Z,1015.71
2017-02-10T08:00:48.575Z,1015.67
2017-02-10T08:01:29.108Z,1015.72
2017-02-10T08:02:09.637Z,1015.71
2017-02-10T08:02:50.183Z,1015.71
2017-02-10T08:03:30.715Z,1015.72
2017-02-10T08:04:11.244Z,1015.71
2017-02-10T08:04:51.779Z,1015.73
2017-02-10T08:05:32.315Z,1015.69
2017-02-10T08:06:12.838Z,1015.71
2017-02-10T08:06:53.367Z,1015.72
2017-02-10T08:07:33.895Z,1015.75
2017-02-10T08:08:14.425Z,1015.73
2017-02-10T08:08:54.945Z,1015.75
2017-02-10T08:09:35.485Z,1015.75
2017-02-10T08:10:15.996Z,1015.77
2017-02-10T08:10:56.526Z,1015.73
2017-02-10T08:11:37.050Z,1015.74
2017-02-10T08:12:17.584Z,1015.74
2017-02-10T08:12:58.141Z,1015.72
2017-02-10T08:13:38.672Z,1015.72
2017-02-10T08:14:19.201Z,1015.74
2017-02-10T08:14:59.737Z,1015.74
2017-02-10T08:15:40.268Z,1015.76
2017-02-10T08:16:20.796Z,1015.77
2017-02-10T08:17:01.304Z,1015.72
2017-02-10T08:17:41.837Z,1015.77
2017-02-10T08:18:22.352Z,1015.79
2017-02-10T08:19:02.876Z,1015.79
2017-02-10T08:19:43.403Z,1015.78
2017-02-10T08:20:23.931Z,1015.8
2017-02-10T08:21:04.466Z,1015.76
2017-02-10T08:21:44.996Z,1015.79
2017-02-10T08:22:25.537Z,1015.79
2017-02-10T08:23:06.039Z,1015.77
2017-02-10T08:23:46.577Z,1015.79
2017-02-10T08:24:27.094Z,1015.8
2017-02-10T08:25:07.621Z,1015.82
2017-02-10T08:25:48.161Z,1015.78
2017-02-10T08:26:28.684Z,1015.8
2017-02-10T08:27:09.208Z,1015.78
2017-02-10T08:27:49.736Z,1015.76
2017-02-10T08:28:30.266Z,1015.76
2017-02-10T08:29:10.796Z,1015.73
2017-02-10T08:29:51.360Z,1015.71
2017-02-10T08:30:31.895Z,1015.77
2017-02-10T08:31:12.430Z,1015.73
2017-02-10T08:31:53.035Z,1015.73
2017-02-10T08:32:33.570Z,1015.74
2017-02-10T08:33:14.100Z,1015.76
2017-02-10T08:33:54.632Z,1015.74
2017-02-10T08:34:35.155Z,1015.72
2017-02-10T08:35:15.668Z,1015.67
2017-02-10T08:35:56.241Z,1015.68
2017-02-10T08:36:36.769Z,1015.74
2017-02-10T08:37:17.361Z,1015.69
2017-02-10T08:37:57.931Z,1015.76
2017-02-10T08:38:38.462Z,1015.72
2017-02-10T08:39:18.983Z,1015.71
2017-02-10T08:39:59.519Z,1015.73
2017-02-10T08:40:40.052Z,1015.71
2017-02-10T08:41:20.570Z,1015.69
2017-02-10T08:42:01.097Z,1015.68
2017-02-10T08:42:41.627Z,1015.7
2017-02-10T08:43:22.183Z,1015.7
2017-02-10T08:44:02.723Z,1015.68
2017-02-10T08:44:43.259Z,1015.64
2017-02-10T08:45:23.793Z,1015.64
2017-02-10T08:46:04.318Z,1015.63
2017-02-10T08:46:44.852Z,1015.63
2017-02-10T08:47:25.388Z,1015.63
2017-02-10T08:48:05.925Z,1015.61
2017-02-10T08:48:46.453Z,1015.65
2017-02-10T08:49:26.992Z,1015.61
2017-02-10T08:50:07.523Z,1015.65
2017-02-10T08:50:48.060Z,1015.65
2017-02-10T08:51:28.587Z,1015.67
2017-02-10T08:52:09.120Z,1015.66
2017-02-10T08:52:49.648Z,1015.65
2017-02-10T08:53:30.173Z,1015.63
2017-02-10T08:54:10.710Z,1015.62
2017-02-10T08:54:51.235Z,1015.69
2017-02-10T08:55:31.766Z,1015.65
2017-02-10T08:56:12.305Z,1015.66
2017-02-10T08:56:52.834Z,1015.61
2017-02-10T08:57:33.357Z,1015.65
2017-02-10T08:58:13.952Z,1015.66
2017-02-10T08:58:54.476Z,1015.63
2017-02-10T08:59:35.001Z,1015.63
2017-02-10T09:00:15.535Z,1015.63
2017-02-10T09:00:56.069Z,1015.64
2017-02-10T09:01:36.595Z,1015.66
2017-02-10T09:02:17.111Z,1015.68
2017-02-10T09:02:57.634Z,1015.65
2017-02-10T09:03:38.163Z,1015.63